Time;durP1;ratioP1;P1;durP2;ratioP2;P2;SDS_P1;SDS_P2;PMS_P1;PMS_P2;Temp;Humidity;BMP_temperature;BMP_pressure;BME280_temperature;BME280_humidity;BME280_pressure;Samples;Min_cycle;Max_cycle;Signal;HPM_P1;HPM_P2
2020/12/01 00:02:15;;;;;;;25.23;17.00;;;;;;;3.16;82.33;96509.19;5074443;28;20202;-61
2020/12/01 00:04:42;;;;;;;26.57;17.27;;;;;;;3.27;82.89;96515.75;5074634;28;20527;-61
2020/12/01 00:07:07;;;;;;;25.27;16.13;;;;;;;2.86;84.51;96505.69;5073999;28;20200;-61
2020/12/01 00:09:32;;;;;;;26.50;17.20;;;;;;;2.98;84.41;96513.88;5074940;28;20428;-61
2020/12/01 00:11:58;;;;;;;27.37;18.60;;;;;;;3.02;85.18;96505.59;5074376;28;20258;-60
2020/12/01 00:14:23;;;;;;;22.37;16.43;;;;;;;3.01;85.45;96498.78;5074086;28;20238;-61
2020/12/01 00:16:48;;;;;;;25.73;17.43;;;;;;;3.04;85.64;96492.44;5076803;28;20181;-60
2020/12/01 00:19:14;;;;;;;28.47;17.40;;;;;;;3.00;86.79;96492.00;5073493;28;20540;-60
2020/12/01 00:21:39;;;;;;;27.30;16.80;;;;;;;2.98;87.20;96493.94;5073701;28;20189;-60
2020/12/01 00:24:05;;;;;;;27.73;17.07;;;;;;;2.77;87.06;96480.03;5073975;28;20274;-61
2020/12/01 00:26:30;;;;;;;29.83;18.10;;;;;;;2.39;89.93;96483.53;5073159;28;20207;-61
2020/12/01 00:28:56;;;;;;;27.00;18.10;;;;;;;2.46;90.29;96474.91;5073127;28;20220;-60
2020/12/01 00:31:21;;;;;;;31.00;18.33;;;;;;;2.82;89.32;96462.16;5072667;28;20189;-61
2020/12/01 00:33:47;;;;;;;32.03;19.20;;;;;;;2.90;88.49;96465.47;5073865;28;20270;-61
2020/12/01 00:36:13;;;;;;;26.97;17.97;;;;;;;3.18;88.15;96455.31;5072153;28;20527;-60
2020/12/01 00:38:39;;;;;;;25.83;17.40;;;;;;;3.13;88.06;96452.47;5073482;28;20882;-60
2020/12/01 00:41:04;;;;;;;29.63;18.30;;;;;;;3.04;88.93;96448.34;5073584;28;20188;-64
2020/12/01 00:43:30;;;;;;;31.57;17.73;;;;;;;3.12;88.13;96435.25;5073184;28;20417;-61
2020/12/01 00:45:56;;;;;;;30.97;20.03;;;;;;;2.95;89.39;96429.41;5073698;28;20178;-60
2020/12/01 00:48:21;;;;;;;34.80;20.90;;;;;;;2.79;90.56;96436.56;5072993;28;20232;-59
2020/12/01 00:50:47;;;;;;;30.00;18.00;;;;;;;3.13;89.12;96418.72;5073354;28;20240;-61
2020/12/01 00:53:12;;;;;;;27.90;18.30;;;;;;;2.96;89.57;96422.44;5073173;28;20203;-61
2020/12/01 00:55:38;;;;;;;29.03;18.10;;;;;;;2.79;90.85;96408.03;5073724;28;20177;-61
2020/12/01 00:58:03;;;;;;;27.07;17.40;;;;;;;2.65;91.66;96409.59;5072621;28;20178;-59
2020/12/01 01:00:30;;;;;;;27.00;18.70;;;;;;;2.74;91.48;96407.72;5072948;28;20202;-62
2020/12/01 01:02:56;;;;;;;28.13;17.60;;;;;;;2.71;91.56;96393.34;5073222;28;20660;-59
2020/12/01 01:05:22;;;;;;;25.83;17.63;;;;;;;2.63;92.74;96390.81;5072882;28;20422;-61
2020/12/01 01:07:48;;;;;;;29.50;19.93;;;;;;;2.57;93.23;96388.13;5071774;28;20280;-59
2020/12/01 01:10:20;;;;;;;28.00;18.00;;;;;;;2.48;93.97;96387.38;5072173;28;20447;-61
2020/12/01 01:12:46;;;;;;;28.83;18.20;;;;;;;2.36;94.76;96380.19;5072836;28;20422;-61
2020/12/01 01:15:12;;;;;;;24.93;15.70;;;;;;;2.23;95.65;96372.22;5072837;28;20424;-61
2020/12/01 01:17:37;;;;;;;29.23;18.00;;;;;;;2.62;94.53;96372.84;5073095;28;20589;-59
2020/12/01 01:20:05;;;;;;;31.80;19.07;;;;;;;2.58;94.88;96368.97;5073329;28;20429;-59
2020/12/01 01:22:31;;;;;;;30.13;18.73;;;;;;;2.30;96.35;96370.53;5073292;28;20177;-61
2020/12/01 01:24:56;;;;;;;26.57;16.07;;;;;;;2.40;95.96;96374.50;5073404;28;20417;-61
2020/12/01 01:27:22;;;;;;;26.80;16.87;;;;;;;2.23;97.30;96367.81;5072144;28;20235;-60
2020/12/01 01:29:47;;;;;;;29.50;17.93;;;;;;;2.32;97.90;96353.03;5073273;28;20221;-60
2020/12/01 01:32:13;;;;;;;31.10;18.60;;;;;;;2.40;97.45;96350.34;5072267;28;20278;-66
2020/12/01 01:34:38;;;;;;;30.13;17.77;;;;;;;2.50;97.23;96337.97;5073108;28;20652;-61
2020/12/01 01:37:04;;;;;;;26.60;16.50;;;;;;;2.45;96.55;96341.06;5072427;28;20186;-61
2020/12/01 01:39:30;;;;;;;25.47;17.73;;;;;;;2.28;97.84;96346.56;5072859;28;20236;-63
2020/12/01 01:41:55;;;;;;;29.17;18.07;;;;;;;2.45;97.11;96351.44;5073032;28;20422;-60
2020/12/01 01:44:24;;;;;;;28.10;16.87;;;;;;;2.37;97.67;96338.56;5071533;28;20233;-60
2020/12/01 01:47:03;;;;;;;25.00;15.90;;;;;;;2.40;97.67;96338.19;5052864;28;20672;-61
2020/12/01 01:49:37;;;;;;;25.73;16.30;;;;;;;2.59;97.41;96335.09;5072420;28;20443;-61
2020/12/01 01:52:09;;;;;;;28.03;16.63;;;;;;;2.79;96.06;96332.81;5077087;28;20910;-61
2020/12/01 01:54:35;;;;;;;25.87;16.27;;;;;;;2.87;95.03;96332.72;5077052;28;20409;-61
2020/12/01 01:57:02;;;;;;;26.60;16.40;;;;;;;3.11;94.92;96327.25;5076634;28;20483;-60
2020/12/01 01:59:31;;;;;;;21.73;15.10;;;;;;;3.15;93.97;96331.91;5076655;28;20193;-62
2020/12/01 02:01:58;;;;;;;24.37;15.50;;;;;;;2.93;94.71;96322.44;5071239;28;20984;-60
2020/12/01 02:04:24;;;;;;;27.63;16.63;;;;;;;2.95;94.65;96312.66;5076240;28;20806;-60
2020/12/01 02:06:52;;;;;;;24.00;15.73;;;;;;;2.80;95.71;96313.66;5075711;28;20426;-62
2020/12/01 02:09:23;;;;;;;24.63;15.97;;;;;;;2.99;95.08;96300.94;5076435;28;20200;-61
2020/12/01 02:11:50;;;;;;;27.57;17.63;;;;;;;3.00;94.65;96291.38;5075847;28;20905;-61
2020/12/01 02:14:21;;;;;;;26.37;16.63;;;;;;;2.61;96.35;96290.88;5076437;28;20410;-60
2020/12/01 02:16:50;;;;;;;24.03;16.20;;;;;;;2.72;96.19;96285.22;5076447;28;20401;-60
2020/12/01 02:19:25;;;;;;;27.07;17.70;;;;;;;2.79;95.76;96280.94;5076537;28;20423;-61
2020/12/01 02:21:51;;;;;;;23.43;15.73;;;;;;;2.83;95.43;96277.78;5076856;28;20497;-60
2020/12/01 02:24:20;;;;;;;25.30;15.93;;;;;;;2.93;95.50;96269.75;5076228;28;20931;-61
2020/12/01 02:26:53;;;;;;;25.37;15.50;;;;;;;3.02;94.96;96263.47;5074563;28;20425;-62
2020/12/01 02:29:23;;;;;;;29.20;16.90;;;;;;;3.00;94.19;96263.66;5076017;28;20437;-60
2020/12/01 02:31:48;;;;;;;25.03;16.00;;;;;;;2.97;94.51;96253.63;5076178;28;20413;-60
2020/12/01 02:34:16;;;;;;;26.53;16.20;;;;;;;2.91;94.75;96251.78;5076493;28;20752;-61
2020/12/01 02:36:42;;;;;;;32.10;18.30;;;;;;;2.87;95.69;96244.50;5076058;28;20536;-61
2020/12/01 02:39:09;;;;;;;26.17;16.33;;;;;;;2.79;95.83;96245.41;5076146;28;20421;-60
2020/12/01 02:41:35;;;;;;;25.60;15.07;;;;;;;2.80;96.16;96233.25;5076200;28;20163;-60
2020/12/01 02:44:00;;;;;;;21.47;14.50;;;;;;;3.02;95.95;96235.75;5075926;28;20417;-61
2020/12/01 02:46:34;;;;;;;22.30;15.70;;;;;;;2.73;96.46;96224.59;5075506;28;20536;-61
2020/12/01 02:48:59;;;;;;;25.73;15.13;;;;;;;2.92;96.26;96211.03;5075748;28;20212;-61
2020/12/01 02:51:24;;;;;;;23.33;15.70;;;;;;;2.81;97.51;96203.72;5075762;28;20498;-60
2020/12/01 02:53:50;;;;;;;25.07;14.30;;;;;;;2.89;96.63;96211.41;5075675;28;20277;-61
2020/12/01 02:56:15;;;;;;;22.30;14.77;;;;;;;2.68;98.39;96193.22;5075521;28;20181;-61
2020/12/01 02:58:41;;;;;;;24.93;15.30;;;;;;;2.91;97.46;96186.91;5075666;28;20169;-61
2020/12/01 03:01:06;;;;;;;24.00;15.40;;;;;;;2.96;97.43;96179.38;5074760;28;20169;-62
2020/12/01 03:03:31;;;;;;;26.40;16.00;;;;;;;2.93;97.76;96187.53;5075314;28;20203;-60
2020/12/01 03:05:57;;;;;;;25.47;14.33;;;;;;;3.04;97.65;96176.66;5075695;28;20684;-60
2020/12/01 03:08:22;;;;;;;20.43;13.90;;;;;;;3.04;98.01;96173.28;5074683;28;20199;-60
2020/12/01 03:10:47;;;;;;;22.50;14.20;;;;;;;3.05;97.85;96173.09;5074527;28;20687;-61
2020/12/01 03:13:13;;;;;;;21.33;15.00;;;;;;;2.94;98.33;96167.56;5075690;28;20217;-60
2020/12/01 03:15:38;;;;;;;22.97;13.73;;;;;;;2.68;100.00;96164.69;5075410;28;20248;-60
2020/12/01 03:18:03;;;;;;;24.83;14.37;;;;;;;2.71;100.00;96169.50;5074635;28;20523;-61
2020/12/01 03:20:29;;;;;;;22.87;14.27;;;;;;;2.94;99.88;96159.78;5075368;28;20213;-62
2020/12/01 03:22:54;;;;;;;25.47;15.10;;;;;;;2.98;99.82;96159.25;5075268;28;20683;-62
2020/12/01 03:25:20;;;;;;;22.57;14.10;;;;;;;2.67;100.00;96153.50;5074784;28;20311;-59
2020/12/01 03:27:45;;;;;;;21.70;14.10;;;;;;;3.03;99.60;96149.13;5074917;28;20285;-59
2020/12/01 03:30:11;;;;;;;24.00;13.53;;;;;;;2.89;100.00;96160.34;5075198;28;20191;-60
2020/12/01 03:32:37;;;;;;;24.27;14.60;;;;;;;2.90;100.00;96148.97;5075011;28;20180;-60
2020/12/01 03:35:02;;;;;;;22.07;13.70;;;;;;;2.87;100.00;96151.94;5074932;28;20969;-60
2020/12/01 03:37:28;;;;;;;23.47;13.90;;;;;;;2.95;100.00;96149.22;5074617;28;20206;-59
2020/12/01 03:39:53;;;;;;;28.33;15.03;;;;;;;2.85;100.00;96140.94;5074264;28;20666;-61
2020/12/01 03:42:19;;;;;;;22.43;13.00;;;;;;;2.81;100.00;96141.47;5074931;28;20215;-61
2020/12/01 03:44:44;;;;;;;21.93;13.40;;;;;;;2.83;100.00;96145.50;5074872;28;20515;-59
2020/12/01 03:47:09;;;;;;;25.53;12.40;;;;;;;2.70;100.00;96141.97;5074263;28;20193;-61
2020/12/01 03:49:35;;;;;;;22.87;13.57;;;;;;;2.87;100.00;96135.56;5074015;28;20212;-60
2020/12/01 03:52:00;;;;;;;20.23;13.63;;;;;;;2.72;100.00;96132.19;5074872;28;20170;-61
2020/12/01 03:54:26;;;;;;;22.90;14.17;;;;;;;2.73;100.00;96131.22;5074715;28;20229;-59
2020/12/01 03:56:51;;;;;;;21.83;13.70;;;;;;;3.00;100.00;96130.53;5073627;28;20180;-61
2020/12/01 03:59:17;;;;;;;22.47;14.37;;;;;;;2.96;100.00;96127.50;5074676;28;20222;-61
2020/12/01 04:01:42;;;;;;;20.63;11.80;;;;;;;2.90;100.00;96122.22;5074819;28;20160;-61
2020/12/01 04:04:07;;;;;;;23.27;13.93;;;;;;;2.89;100.00;96123.22;5074791;28;20175;-59
2020/12/01 04:06:33;;;;;;;22.93;13.97;;;;;;;3.00;100.00;96127.94;5073821;28;20176;-60
2020/12/01 04:08:58;;;;;;;24.37;13.97;;;;;;;2.71;100.00;96121.03;5074429;28;20211;-61
2020/12/01 04:11:24;;;;;;;23.00;14.83;;;;;;;2.89;100.00;96128.41;5072225;28;20205;-61
2020/12/01 04:13:51;;;;;;;23.80;15.03;;;;;;;2.87;100.00;96112.22;5074532;28;20197;-61
2020/12/01 04:16:18;;;;;;;25.97;15.03;;;;;;;2.82;100.00;96110.19;5073598;28;20501;-65
2020/12/01 04:18:43;;;;;;;25.73;14.70;;;;;;;2.86;100.00;96111.41;5073854;28;20408;-60
2020/12/01 04:21:08;;;;;;;25.40;14.50;;;;;;;2.73;100.00;96106.13;5073543;28;20418;-59
2020/12/01 04:23:34;;;;;;;19.40;13.37;;;;;;;2.71;100.00;96104.69;5074285;28;20169;-59
2020/12/01 04:25:59;;;;;;;23.90;14.00;;;;;;;2.98;100.00;96102.19;5074360;28;20559;-61
2020/12/01 04:28:25;;;;;;;24.73;15.40;;;;;;;2.97;100.00;96103.16;5073771;28;20342;-59
2020/12/01 04:30:50;;;;;;;21.73;12.97;;;;;;;2.86;100.00;96111.41;5074190;28;20649;-59
2020/12/01 04:33:15;;;;;;;22.73;12.43;;;;;;;2.77;100.00;96106.53;5074123;28;20176;-59
2020/12/01 04:35:41;;;;;;;25.13;13.90;;;;;;;2.79;100.00;96097.56;5073171;28;20650;-59
2020/12/01 04:38:07;;;;;;;23.83;13.90;;;;;;;3.01;100.00;96093.19;5073696;28;20171;-60
2020/12/01 04:40:37;;;;;;;22.03;15.43;;;;;;;2.86;100.00;96100.25;5073827;28;20221;-61
2020/12/01 04:43:15;;;;;;;22.27;14.80;;;;;;;2.90;100.00;96093.69;5073893;28;20451;-61
2020/12/01 04:45:42;;;;;;;22.10;14.23;;;;;;;2.79;100.00;96087.19;5072903;28;20486;-61
2020/12/01 04:48:28;;;;;;;22.53;14.17;;;;;;;2.85;100.00;96088.25;5072963;28;20449;-60
2020/12/01 04:50:59;;;;;;;22.43;13.33;;;;;;;2.85;100.00;96090.84;5073764;28;20401;-61
2020/12/01 04:53:56;;;;;;;24.53;14.57;;;;;;;2.90;100.00;96085.91;5072386;28;20417;-59
2020/12/01 04:56:39;;;;;;;22.73;15.33;;;;;;;3.10;100.00;96087.72;5051970;28;20478;-60
2020/12/01 04:59:26;;;;;;;20.20;13.80;;;;;;;3.10;100.00;96079.91;5053595;28;20426;-61
2020/12/01 05:02:25;;;;;;;23.40;15.17;;;;;;;3.19;100.00;96077.22;5054029;28;20511;-60
2020/12/01 05:05:26;;;;;;;25.00;13.43;;;;;;;2.90;100.00;96076.34;5052482;28;20757;-59
2020/12/01 05:08:33;;;;;;;22.47;13.73;;;;;;;3.09;100.00;96075.75;5067459;28;20452;-59
2020/12/01 05:11:11;;;;;;;21.40;13.47;;;;;;;3.28;100.00;96074.28;5073193;28;20426;-60
2020/12/01 05:13:36;;;;;;;24.67;13.80;;;;;;;3.31;99.90;96071.31;5073796;28;20812;-61
2020/12/01 05:16:38;;;;;;;24.63;14.60;;;;;;;3.28;99.86;96066.50;5072786;28;20514;-60
2020/12/01 05:19:38;;;;;;;21.80;13.67;;;;;;;3.23;100.00;96079.22;5072602;28;20205;-60
2020/12/01 05:22:03;;;;;;;22.43;13.57;;;;;;;3.12;100.00;96075.34;5051987;28;20505;-60
2020/12/01 05:24:40;;;;;;;20.47;11.57;;;;;;;3.34;99.85;96078.72;5053329;28;20500;-61
2020/12/01 05:27:19;;;;;;;20.90;12.93;;;;;;;3.48;99.14;96064.84;5055139;28;20183;-61
2020/12/01 05:29:45;;;;;;;19.47;12.57;;;;;;;3.72;97.82;96066.22;5073290;28;20484;-60
2020/12/01 05:32:11;;;;;;;21.20;12.83;;;;;;;3.50;98.45;96064.66;5073494;28;20439;-61
2020/12/01 05:34:36;;;;;;;21.03;13.17;;;;;;;3.45;98.68;96054.84;5073018;28;20779;-60
2020/12/01 05:37:06;;;;;;;20.53;13.13;;;;;;;3.59;98.00;96061.72;5072890;28;20512;-61
2020/12/01 05:39:34;;;;;;;20.90;13.43;;;;;;;3.58;98.28;96064.53;5073358;28;20221;-61
2020/12/01 05:42:01;;;;;;;21.90;13.90;;;;;;;3.76;97.66;96063.06;5072900;28;20438;-61
2020/12/01 05:44:30;;;;;;;23.33;13.20;;;;;;;3.84;97.27;96062.09;5072678;28;20915;-61
2020/12/01 05:47:08;;;;;;;22.90;11.87;;;;;;;3.89;97.48;96070.13;5072653;28;20409;-60
2020/12/01 05:49:44;;;;;;;24.40;13.43;;;;;;;3.91;96.86;96066.31;5073147;28;20927;-61
2020/12/01 05:52:17;;;;;;;19.20;13.20;;;;;;;3.89;96.45;96075.31;5072639;28;20421;-62
2020/12/01 05:54:45;;;;;;;17.37;12.20;;;;;;;3.78;97.44;96066.25;5073177;28;20412;-61
2020/12/01 05:57:24;;;;;;;21.47;12.10;;;;;;;3.96;96.12;96073.56;5072408;28;20578;-61
2020/12/01 06:00:03;;;;;;;18.87;12.97;;;;;;;4.03;95.77;96074.38;5071294;28;20954;-61
2020/12/01 06:02:34;;;;;;;24.20;14.30;;;;;;;4.11;95.55;96075.03;5073203;28;20421;-61
2020/12/01 06:05:01;;;;;;;18.80;13.40;;;;;;;4.22;95.06;96072.88;5071943;28;20507;-57
2020/12/01 06:07:27;;;;;;;22.87;15.20;;;;;;;4.48;94.61;96070.38;5072049;28;20459;-63
2020/12/01 06:10:16;;;;;;;26.30;12.83;;;;;;;4.72;93.03;96072.47;5072898;28;20434;-58
2020/12/01 06:13:02;;;;;;;31.67;16.47;;;;;;;4.89;92.04;96064.09;5052946;28;20176;-58
2020/12/01 06:15:28;;;;;;;25.20;14.10;;;;;;;4.99;90.99;96067.13;5071965;28;20442;-64
2020/12/01 06:18:10;;;;;;;24.03;15.17;;;;;;;4.87;91.50;96063.47;5068989;28;20415;-65
2020/12/01 06:20:38;;;;;;;22.30;14.27;;;;;;;4.90;90.87;96062.28;5066104;28;20442;-63
2020/12/01 06:23:24;;;;;;;17.40;11.27;;;;;;;4.85;91.03;96068.09;5069106;28;20448;-63
2020/12/01 06:25:55;;;;;;;32.17;18.67;;;;;;;4.86;90.01;96068.88;5069053;28;20403;-62
2020/12/01 06:28:45;;;;;;;17.83;10.80;;;;;;;4.73;90.79;96061.06;5068278;28;20557;-64
2020/12/01 06:31:35;;;;;;;15.27;9.90;;;;;;;4.80;91.09;96060.06;5068756;28;20641;-63
2020/12/01 06:34:42;;;;;;;18.60;12.47;;;;;;;4.85;91.03;96062.09;5068317;28;20464;-64
2020/12/01 06:37:33;;;;;;;45.17;23.43;;;;;;;4.89;90.67;96058.09;5072210;28;20426;-67
2020/12/01 06:40:25;;;;;;;38.37;20.20;;;;;;;4.86;90.50;96054.09;5072417;28;20456;-68
2020/12/01 06:43:16;;;;;;;17.80;11.20;;;;;;;4.82;89.95;96058.06;5072670;28;20419;-62
2020/12/01 06:45:49;;;;;;;14.40;9.63;;;;;;;4.77;91.33;96051.84;5066542;28;20434;-60
2020/12/01 06:48:19;;;;;;;22.80;13.37;;;;;;;5.01;90.65;96054.72;5062695;28;20491;-65
2020/12/01 06:50:51;;;;;;;13.43;9.37;;;;;;;5.09;89.70;96056.34;5071000;28;20968;-61
2020/12/01 06:53:24;;;;;;;13.30;9.30;;;;;;;5.10;89.76;96056.13;5071512;28;20514;-65
2020/12/01 06:55:56;;;;;;;15.77;10.47;;;;;;;5.29;88.18;96056.34;5072416;28;20415;-59
2020/12/01 06:58:27;;;;;;;15.30;10.70;;;;;;;5.42;88.67;96059.72;5071222;28;20416;-68
2020/12/01 07:01:06;;;;;;;13.73;9.60;;;;;;;5.51;87.80;96068.16;5075307;28;20458;-69
2020/12/01 07:03:32;;;;;;;45.53;23.53;;;;;;;5.31;87.90;96064.75;5075543;28;20910;-62
2020/12/01 07:06:09;;;;;;;54.60;28.33;;;;;;;5.35;88.16;96052.91;5075912;28;20404;-69
2020/12/01 07:08:34;;;;;;;17.87;11.03;;;;;;;5.49;87.77;96049.31;5075141;28;20201;-70
2020/12/01 07:11:26;;;;;;;21.50;12.50;;;;;;;5.58;87.17;96054.09;5075691;28;20419;-62
2020/12/01 07:14:20;;;;;;;25.90;23.20;;;;;;;5.74;86.04;96060.72;5075308;28;20646;-63
2020/12/01 07:16:49;;;;;;;15.80;12.20;;;;;;;5.39;86.37;96062.75;5075317;28;20413;-69
2020/12/01 07:19:35;;;;;;;12.10;10.93;;;;;;;5.27;86.38;96060.94;5075248;28;20812;-62
2020/12/01 07:22:38;;;;;;;11.93;9.00;;;;;;;5.07;87.36;96058.34;5075279;28;20404;-63
2020/12/01 07:25:07;;;;;;;18.10;13.80;;;;;;;5.09;88.17;96062.31;5075334;28;20384;-69
2020/12/01 07:27:50;;;;;;;10.03;8.00;;;;;;;4.98;88.49;96062.91;5074802;28;20455;-69
2020/12/01 07:30:25;;;;;;;11.90;8.93;;;;;;;4.97;88.76;96063.91;5075395;28;20442;-69
2020/12/01 07:32:50;;;;;;;9.00;7.40;;;;;;;4.75;89.38;96062.47;5074803;28;20427;-62
2020/12/01 07:35:34;;;;;;;10.53;6.83;;;;;;;4.61;89.84;96066.03;5075129;28;20416;-62
2020/12/01 07:38:11;;;;;;;10.20;6.80;;;;;;;4.75;90.25;96072.06;5074707;28;20192;-69
2020/12/01 07:40:53;;;;;;;11.57;6.93;;;;;;;4.68;89.43;96061.66;5075109;28;20539;-62
2020/12/01 07:43:21;;;;;;;11.73;6.83;;;;;;;4.87;90.24;96067.91;5075152;28;20867;-62
2020/12/01 07:45:47;;;;;;;10.20;6.13;;;;;;;5.01;88.63;96062.53;5074749;28;20419;-62
2020/12/01 07:48:17;;;;;;;8.30;5.20;;;;;;;4.74;89.92;96060.06;5074487;28;20453;-62
2020/12/01 07:50:43;;;;;;;8.47;6.40;;;;;;;4.62;90.40;96069.44;5073577;28;20925;-63
2020/12/01 07:53:14;;;;;;;6.97;5.50;;;;;;;4.28;92.70;96065.09;5074218;28;20507;-62
2020/12/01 07:55:55;;;;;;;11.20;5.20;;;;;;;4.52;91.74;96066.41;5075130;28;20408;-63
2020/12/01 07:58:24;;;;;;;7.17;5.40;;;;;;;4.53;91.17;96075.81;5074189;28;20438;-62
2020/12/01 08:01:03;;;;;;;13.10;5.97;;;;;;;4.68;90.65;96085.06;5074734;28;20418;-62
2020/12/01 08:03:33;;;;;;;7.37;6.23;;;;;;;4.62;90.83;96080.63;5074903;28;20430;-63
2020/12/01 08:06:06;;;;;;;7.97;5.50;;;;;;;4.54;91.50;96067.00;5074526;28;20402;-63
2020/12/01 08:08:34;;;;;;;8.20;5.67;;;;;;;4.84;90.91;96066.50;5074082;28;20466;-63
2020/12/01 08:11:05;;;;;;;11.03;5.50;;;;;;;5.05;89.52;96071.53;5074711;28;20447;-69
2020/12/01 08:13:33;;;;;;;14.73;5.50;;;;;;;5.03;89.61;96065.75;5074236;28;20426;-62
2020/12/01 08:16:00;;;;;;;6.70;5.23;;;;;;;4.97;88.50;96068.31;5074551;28;20730;-62
2020/12/01 08:18:28;;;;;;;8.00;5.13;;;;;;;4.94;89.53;96079.13;5073622;28;20424;-68
2020/12/01 08:20:54;;;;;;;7.40;5.10;;;;;;;4.87;89.43;96076.50;5073017;28;20769;-69
2020/12/01 08:23:25;;;;;;;9.33;6.40;;;;;;;4.84;89.38;96074.28;5074488;28;20488;-69
2020/12/01 08:26:06;;;;;;;11.40;6.40;;;;;;;4.88;90.60;96078.13;5074328;28;20399;-63
2020/12/01 08:28:39;;;;;;;8.97;5.37;;;;;;;5.07;89.14;96076.56;5073794;28;20559;-69
2020/12/01 08:31:11;;;;;;;7.47;6.40;;;;;;;4.91;88.92;96077.72;5074110;28;20435;-62
2020/12/01 08:34:04;;;;;;;7.50;5.10;;;;;;;4.79;89.60;96081.09;5073796;28;20426;-63
2020/12/01 08:36:51;;;;;;;7.47;4.63;;;;;;;4.87;89.24;96080.91;5073623;28;20901;-69
2020/12/01 08:39:29;;;;;;;9.50;5.30;;;;;;;4.69;90.66;96081.44;5072676;28;20445;-69
2020/12/01 08:42:10;;;;;;;5.40;4.70;;;;;;;4.97;89.64;96081.31;5073984;28;20943;-68
2020/12/01 08:44:43;;;;;;;8.37;5.50;;;;;;;4.95;88.81;96080.72;5073672;28;20423;-68
2020/12/01 08:47:09;;;;;;;9.47;5.20;;;;;;;4.91;89.30;96082.13;5073562;28;20454;-69
2020/12/01 08:49:47;;;;;;;10.20;5.87;;;;;;;4.97;89.05;96084.75;5073627;28;20934;-63
2020/12/01 08:52:28;;;;;;;8.43;5.90;;;;;;;5.08;88.30;96083.34;5073959;28;20196;-63
2020/12/01 08:54:59;;;;;;;6.20;5.00;;;;;;;5.00;89.00;96086.16;5073690;28;20900;-69
2020/12/01 08:57:34;;;;;;;6.63;5.83;;;;;;;5.06;88.64;96082.75;5072449;28;20428;-69
2020/12/01 09:00:10;;;;;;;9.63;4.97;;;;;;;5.24;87.92;96090.78;5073151;28;20816;-63
2020/12/01 09:02:41;;;;;;;7.90;5.70;;;;;;;5.14;88.00;96090.38;5073542;28;20443;-69
2020/12/01 09:05:22;;;;;;;6.83;5.07;;;;;;;5.27;88.04;96090.41;5072163;28;20766;-63
2020/12/01 09:07:51;;;;;;;5.80;4.90;;;;;;;5.46;87.24;96092.19;5073035;28;20441;-63
2020/12/01 09:10:28;;;;;;;7.10;4.90;;;;;;;5.54;87.55;96092.00;5073591;28;20914;-69
2020/12/01 09:13:16;;;;;;;7.43;5.00;;;;;;;5.71;86.37;96090.59;5073500;28;20436;-69
2020/12/01 09:24:16;;;;;;;7.07;5.37;;;;;;;5.81;85.12;96088.38;5073412;28;20399;-69
2020/12/01 09:26:41;;;;;;;8.80;5.90;;;;;;;5.79;84.49;96082.56;5073035;28;20393;-69
2020/12/01 09:29:07;;;;;;;8.87;6.60;;;;;;;5.84;84.59;96092.41;5073276;28;20481;-64
2020/12/01 09:31:37;;;;;;;11.60;7.93;;;;;;;5.86;84.04;96100.81;5073521;28;20253;-63
2020/12/01 09:34:02;;;;;;;7.67;5.20;;;;;;;5.80;83.75;96105.00;5073293;28;20176;-69
2020/12/01 09:36:28;;;;;;;10.50;5.00;;;;;;;5.79;84.76;96108.63;5072921;28;20489;-69
2020/12/01 09:38:54;;;;;;;8.63;6.27;;;;;;;5.80;84.33;96112.03;5073239;28;20185;-62
2020/12/01 09:41:22;;;;;;;6.07;5.43;;;;;;;5.80;84.46;96114.63;5073302;28;20166;-69
2020/12/01 09:44:26;;;;;;;8.67;6.77;;;;;;;5.77;84.30;96108.03;5073263;28;20887;-63
2020/12/01 09:46:59;;;;;;;6.30;5.13;;;;;;;5.79;84.47;96113.03;5051421;28;20850;-63
2020/12/01 09:49:24;;;;;;;16.20;14.83;;;;;;;5.69;85.52;96107.44;5063717;28;20513;-68
2020/12/01 09:54:49;;;;;;;6.37;4.03;;;;;;;5.98;84.72;96112.22;5072763;28;20201;-62
2020/12/01 10:08:19;;;;;;;8.47;4.87;;;;;;;5.53;84.72;96115.63;5049068;28;20450;-66
2020/12/01 10:14:00;;;;;;;6.73;4.80;;;;;;;5.72;85.03;96122.66;5056920;28;20517;-67
2020/12/01 10:17:24;;;;;;;8.27;4.83;;;;;;;5.84;84.59;96118.47;5072884;28;20417;-67
2020/12/01 10:20:16;;;;;;;5.93;5.10;;;;;;;5.74;85.28;96116.22;5052992;28;20440;-68
2020/12/01 10:25:36;;;;;;;6.13;5.50;;;;;;;5.84;85.43;96118.47;5072731;28;20760;-67
2020/12/01 10:36:06;;;;;;;6.50;4.53;;;;;;;6.14;83.43;96107.38;5073816;28;20561;-67
2020/12/01 10:38:31;;;;;;;4.80;4.27;;;;;;;6.20;82.63;96111.00;5070467;28;21021;-66
2020/12/01 10:40:57;;;;;;;5.00;4.43;;;;;;;6.06;83.12;96107.63;5087797;28;20177;-62
2020/12/01 10:43:23;;;;;;;9.23;4.60;;;;;;;6.03;83.38;96112.44;5085451;28;20262;-59
2020/12/01 10:45:48;;;;;;;6.80;4.50;;;;;;;6.05;83.39;96105.22;5076408;28;20447;-63
2020/12/01 10:48:14;;;;;;;5.80;4.47;;;;;;;6.11;83.67;96115.63;5075471;28;20245;-60
2020/12/01 10:50:39;;;;;;;5.37;4.83;;;;;;;6.11;82.72;96112.22;5076016;28;20696;-60
2020/12/01 10:53:05;;;;;;;5.00;4.50;;;;;;;6.11;83.01;96107.81;5076084;28;20167;-63
2020/12/01 10:55:32;;;;;;;6.80;4.67;;;;;;;6.03;83.82;96112.44;5076090;28;20245;-63
2020/12/01 10:57:58;;;;;;;4.60;4.17;;;;;;;5.86;83.01;96111.25;5075627;28;20293;-63
2020/12/01 11:00:25;;;;;;;4.00;3.60;;;;;;;5.85;83.67;96120.09;5075915;28;20431;-63
2020/12/01 11:02:51;;;;;;;5.83;4.40;;;;;;;5.92;83.98;96121.69;5075450;28;20511;-60
2020/12/01 11:05:26;;;;;;;4.70;4.30;;;;;;;6.01;83.38;96115.25;5075860;28;20431;-62
2020/12/01 11:07:52;;;;;;;7.87;4.07;;;;;;;5.92;84.30;96120.88;5074947;28;20982;-62
2020/12/01 11:10:17;;;;;;;9.17;4.30;;;;;;;5.95;84.09;96120.47;5075514;28;20454;-63
2020/12/01 11:12:43;;;;;;;9.47;5.07;;;;;;;5.96;83.64;96119.47;5075839;28;20185;-62
2020/12/01 11:15:09;;;;;;;5.37;3.97;;;;;;;6.11;83.36;96115.63;5075790;28;20250;-61
2020/12/01 11:17:34;;;;;;;6.27;4.30;;;;;;;6.07;83.14;96122.25;5074907;28;20167;-63
2020/12/01 11:19:59;;;;;;;7.57;5.00;;;;;;;6.17;82.45;96119.22;5074941;28;20262;-62
2020/12/01 11:22:25;;;;;;;5.43;4.80;;;;;;;6.27;82.03;96127.41;5074634;28;20170;-62
2020/12/01 11:24:51;;;;;;;7.17;5.07;;;;;;;6.29;82.15;96119.41;5075511;28;20221;-62
2020/12/01 11:27:16;;;;;;;5.70;5.10;;;;;;;6.29;81.67;96122.03;5072860;28;20183;-61
2020/12/01 11:29:41;;;;;;;10.00;5.60;;;;;;;6.29;82.61;96114.19;5075252;28;20200;-62
2020/12/01 11:32:07;;;;;;;5.50;4.70;;;;;;;6.30;81.62;96121.81;5075144;28;20253;-62
2020/12/01 11:34:32;;;;;;;7.60;5.43;;;;;;;6.26;81.80;96128.44;5074557;28;20170;-64
2020/12/01 11:36:58;;;;;;;6.43;5.77;;;;;;;6.15;83.15;96131.66;5074835;28;20170;-63
2020/12/01 11:39:24;;;;;;;6.40;5.10;;;;;;;6.19;82.43;96136.28;5075080;28;20264;-62
2020/12/01 11:41:50;;;;;;;7.47;5.90;;;;;;;6.13;82.72;96126.66;5075241;28;20167;-61
2020/12/01 11:44:15;;;;;;;6.30;5.30;;;;;;;6.18;82.83;96128.66;5075223;28;20473;-62
2020/12/01 11:46:42;;;;;;;8.03;6.10;;;;;;;6.31;82.69;96128.63;5074788;28;20382;-63
2020/12/01 11:49:07;;;;;;;6.77;5.73;;;;;;;6.24;82.81;96123.44;5074558;28;20278;-62
2020/12/01 11:51:35;;;;;;;7.77;6.70;;;;;;;6.27;82.40;96126.63;5074470;28;20448;-61
2020/12/01 11:54:01;;;;;;;6.57;5.43;;;;;;;6.25;82.91;96126.81;5075026;28;20220;-62
2020/12/01 11:56:28;;;;;;;8.00;7.20;;;;;;;6.33;83.34;96125.81;5074749;28;20458;-63
2020/12/01 11:58:54;;;;;;;6.53;5.43;;;;;;;6.19;83.62;96131.06;5074413;28;20281;-62
2020/12/01 12:01:20;;;;;;;6.53;5.83;;;;;;;6.25;83.69;96134.66;5074863;28;20437;-62
2020/12/01 12:03:45;;;;;;;6.37;5.60;;;;;;;6.11;84.17;96128.66;5074556;28;20167;-67
2020/12/01 12:06:12;;;;;;;6.43;5.83;;;;;;;6.06;83.44;96143.31;5074066;28;20257;-63
2020/12/01 12:08:38;;;;;;;7.07;6.33;;;;;;;6.01;83.92;96133.50;5074182;28;20221;-62
2020/12/01 12:11:03;;;;;;;9.37;6.50;;;;;;;6.01;84.16;96138.72;5074607;28;20443;-62
2020/12/01 12:13:29;;;;;;;5.63;5.10;;;;;;;6.12;83.85;96138.06;5073322;28;20488;-62
2020/12/01 12:15:55;;;;;;;9.07;8.13;;;;;;;6.20;84.49;96130.06;5074131;28;20184;-61
2020/12/01 12:18:20;;;;;;;18.47;16.67;;;;;;;6.23;82.96;96131.47;5072798;28;20632;-62
2020/12/01 12:20:45;;;;;;;8.47;7.67;;;;;;;6.12;83.45;96135.47;5073998;28;20195;-62
2020/12/01 12:23:11;;;;;;;7.07;5.90;;;;;;;5.92;84.32;96133.91;5074232;28;20179;-62